Time;durP1;ratioP1;P1;durP2;ratioP2;P2;SDS_P1;SDS_P2;PMS_P1;PMS_P2;Temp;Humidity;BMP_temperature;BMP_pressure;BME280_temperature;BME280_humidity;BME280_pressure;Samples;Min_cycle;Max_cycle;Signal;HPM_P1;HPM_P2
2021/03/10 00:02:10;;;;;;;8.50;5.83;;;;;;;;;;5034180;28;20293;-60
2021/03/10 00:04:35;;;;;;;7.57;5.73;;;;;;;;;;5034704;28;20550;-60
2021/03/10 00:07:00;;;;;;;7.10;5.43;;;;;;;;;;5035007;28;20222;-60
2021/03/10 00:09:26;;;;;;;8.90;5.93;;;;;;;;;;5034338;28;20219;-59
2021/03/10 00:11:51;;;;;;;7.80;5.70;;;;;;;;;;5033465;28;20214;-59
2021/03/10 00:14:16;;;;;;;7.63;5.50;;;;;;;;;;5034401;28;20556;-60
2021/03/10 00:16:41;;;;;;;8.57;6.17;;;;;;;;;;5034231;28;20214;-59
2021/03/10 00:19:07;;;;;;;6.60;5.07;;;;;;;;;;5034576;28;20557;-60
2021/03/10 00:21:32;;;;;;;8.00;5.80;;;;;;;;;;5033842;28;20296;-60
2021/03/10 00:23:57;;;;;;;6.13;5.40;;;;;;;;;;5034711;28;20669;-60
2021/03/10 00:26:22;;;;;;;8.40;6.37;;;;;;;;;;5034241;28;20245;-59
2021/03/10 00:28:48;;;;;;;6.33;5.30;;;;;;;;;;5033666;28;20271;-60
2021/03/10 00:31:13;;;;;;;8.00;6.53;;;;;;;;;;5039420;28;20224;-60
2021/03/10 00:33:38;;;;;;;8.17;6.23;;;;;;;;;;5033003;28;20672;-60
2021/03/10 00:36:04;;;;;;;10.27;6.10;;;;;;;;;;5034536;28;20212;-60
2021/03/10 00:38:29;;;;;;;7.80;6.30;;;;;;;;;;5034049;28;20314;-60
2021/03/10 00:40:54;;;;;;;10.80;6.37;;;;;;;;;;5037227;28;20370;-60
2021/03/10 00:43:19;;;;;;;7.00;6.00;;;;;;;;;;5038205;28;20229;-60
2021/03/10 00:45:45;;;;;;;12.60;6.90;;;;;;;;;;5036437;28;20218;-60
2021/03/10 00:48:10;;;;;;;7.13;6.10;;;;;;;;;;5037987;28;20613;-59
2021/03/10 00:50:35;;;;;;;8.00;6.40;;;;;;;;;;5037579;28;20224;-60
2021/03/10 00:53:00;;;;;;;7.60;5.97;;;;;;;;;;5033002;28;20213;-60
2021/03/10 00:55:28;;;;;;;7.40;5.87;;;;;;;;;;5049555;28;20232;-60
2021/03/10 00:57:53;;;;;;;9.13;5.37;;;;;;;;;;5036764;28;20538;-60
2021/03/10 01:00:20;;;;;;;7.17;6.03;;;;;;;;;;5038494;28;20457;-60
2021/03/10 01:02:45;;;;;;;9.30;6.13;;;;;;;;;;5037137;28;20304;-60
2021/03/10 01:05:11;;;;;;;7.90;5.13;;;;;;;;;;5038147;28;20528;-60
2021/03/10 01:07:39;;;;;;;8.13;6.60;;;;;;;;;;5029079;28;20233;-61
2021/03/10 01:10:07;;;;;;;8.30;6.00;;;;;;;;;;5037958;28;20279;-59
2021/03/10 01:12:32;;;;;;;7.30;5.27;;;;;;;;;;5037640;28;20456;-60
2021/03/10 01:15:05;;;;;;;11.07;6.67;;;;;;;;;;5037223;28;20538;-60
2021/03/10 01:17:35;;;;;;;12.43;6.63;;;;;;;;;;5035762;28;20217;-60
2021/03/10 01:20:10;;;;;;;6.77;6.07;;;;;;;;;;5045310;28;20466;-60
2021/03/10 01:22:35;;;;;;;8.47;6.10;;;;;;;;;;5053406;28;20466;-60
2021/03/10 01:25:00;;;;;;;10.57;6.77;;;;;;;;;;5037339;28;20445;-60
2021/03/10 01:27:26;;;;;;;8.70;5.90;;;;;;;;;;5036957;28;20236;-59
2021/03/10 01:29:51;;;;;;;11.60;6.13;;;;;;;;;;5036898;28;20685;-59
2021/03/10 01:32:19;;;;;;;8.80;6.13;;;;;;;;;;5037689;28;20215;-59
2021/03/10 01:34:44;;;;;;;7.23;5.60;;;;;;;;;;5037166;28;20229;-60
2021/03/10 01:37:09;;;;;;;10.90;7.10;;;;;;;;;;5037216;28;20916;-60
2021/03/10 01:39:37;;;;;;;7.33;5.27;;;;;;;;;;5037324;28;20265;-60
2021/03/10 01:42:03;;;;;;;10.87;6.70;;;;;;;;;;5036965;28;20218;-60
2021/03/10 01:44:30;;;;;;;9.73;6.40;;;;;;;;;;5037245;28;20474;-59
2021/03/10 01:46:55;;;;;;;8.47;5.90;;;;;;;;;;5036716;28;20464;-60
2021/03/10 01:49:22;;;;;;;8.30;5.97;;;;;;;;;;5036243;28;20524;-59
2021/03/10 01:51:47;;;;;;;10.37;6.80;;;;;;;;;;5026444;28;20241;-60
2021/03/10 01:54:13;;;;;;;7.87;6.73;;;;;;;;;;5052143;28;20491;-60
2021/03/10 01:56:39;;;;;;;8.40;6.57;;;;;;;;;;5041976;28;20239;-59
2021/03/10 01:59:04;;;;;;;9.10;6.80;;;;;;;;;;5037681;28;20453;-60
2021/03/10 02:01:30;;;;;;;10.90;7.37;;;;;;;;;;5036782;28;20468;-59
2021/03/10 02:03:55;;;;;;;8.23;6.90;;;;;;;;;;5036396;28;20221;-60
2021/03/10 02:06:36;;;;;;;10.23;6.70;;;;;;;;;;5036604;28;20237;-60
2021/03/10 02:09:06;;;;;;;8.83;6.10;;;;;;;;;;5035592;28;20225;-59
2021/03/10 02:11:33;;;;;;;10.10;6.63;;;;;;;;;;5036902;28;20461;-60
2021/03/10 02:14:12;;;;;;;10.43;6.30;;;;;;;;;;5034873;28;20467;-60
2021/03/10 02:16:45;;;;;;;8.23;6.67;;;;;;;;;;5035982;28;20453;-60
2021/03/10 02:19:16;;;;;;;8.43;6.37;;;;;;;;;;5036247;28;20548;-60
2021/03/10 02:22:00;;;;;;;8.10;6.50;;;;;;;;;;5036525;28;20957;-60
2021/03/10 02:24:48;;;;;;;12.90;7.00;;;;;;;;;;5036069;28;20464;-60
2021/03/10 02:27:40;;;;;;;10.40;7.53;;;;;;;;;;5035730;28;20631;-60
2021/03/10 02:30:10;;;;;;;10.10;6.57;;;;;;;;;;5035317;28;20491;-60
2021/03/10 02:32:38;;;;;;;8.97;7.20;;;;;;;;;;5035258;28;21366;-59
2021/03/10 02:35:06;;;;;;;9.37;6.23;;;;;;;;;;5035770;28;20453;-59
2021/03/10 02:37:31;;;;;;;10.17;8.70;;;;;;;;;;5036077;28;20517;-60
2021/03/10 02:39:58;;;;;;;9.27;6.17;;;;;;;;;;5035642;28;20837;-60
2021/03/10 02:42:24;;;;;;;9.73;6.50;;;;;;;;;;5034864;28;20460;-60
2021/03/10 02:44:49;;;;;;;7.70;6.20;;;;;;;;;;5035415;28;20455;-60
2021/03/10 02:47:14;;;;;;;10.20;6.97;;;;;;;;;;5034736;28;20245;-61
2021/03/10 02:49:40;;;;;;;7.90;6.57;;;;;;;;;;5034651;28;20654;-60
2021/03/10 02:52:06;;;;;;;11.27;6.43;;;;;;;;;;5035691;28;20254;-60
2021/03/10 02:54:32;;;;;;;10.50;7.10;;;;;;;;;;5035245;28;20276;-60
2021/03/10 02:56:58;;;;;;;10.57;6.77;;;;;;;;;;5036165;28;20476;-60
2021/03/10 02:59:23;;;;;;;7.77;6.77;;;;;;;;;;5034787;28;20221;-59
2021/03/10 03:01:49;;;;;;;9.73;6.60;;;;;;;;;;5034827;28;20241;-59
2021/03/10 03:04:14;;;;;;;9.03;6.47;;;;;;;;;;5035543;28;20218;-60
2021/03/10 03:06:39;;;;;;;8.60;7.40;;;;;;;;;;5035583;28;20907;-60
2021/03/10 03:09:06;;;;;;;13.63;7.13;;;;;;;;;;5035648;28;20301;-61
2021/03/10 03:11:32;;;;;;;11.00;7.57;;;;;;;;;;5034568;28;20658;-60
2021/03/10 03:13:58;;;;;;;10.73;6.63;;;;;;;;;;5035552;28;20500;-65
2021/03/10 03:16:25;;;;;;;11.53;7.50;;;;;;;;;;5036722;28;20210;-60
2021/03/10 03:18:50;;;;;;;11.17;6.60;;;;;;;;;;5041286;28;20938;-59
2021/03/10 03:21:16;;;;;;;9.50;7.13;;;;;;;;;;5037535;28;20465;-60
2021/03/10 03:23:42;;;;;;;10.80;7.73;;;;;;;;;;5054624;28;20221;-60
2021/03/10 03:26:07;;;;;;;9.10;6.83;;;;;;;;;;5050517;28;20221;-59
2021/03/10 03:28:33;;;;;;;10.50;7.33;;;;;;;;;;5034306;28;20495;-60
2021/03/10 03:30:58;;;;;;;9.33;7.87;;;;;;;;;;5035847;28;20298;-60
2021/03/10 03:33:26;;;;;;;12.43;6.60;;;;;;;;;;5035497;28;20557;-59
2021/03/10 03:35:56;;;;;;;10.03;7.63;;;;;;;;;;5031968;28;20222;-61
2021/03/10 03:38:23;;;;;;;12.70;8.57;;;;;;;;;;5054803;28;20468;-60
2021/03/10 03:40:49;;;;;;;9.70;6.77;;;;;;;;;;5055713;28;20542;-59
2021/03/10 03:43:15;;;;;;;10.50;8.07;;;;;;;;;;5055088;28;20481;-59
2021/03/10 03:45:41;;;;;;;13.07;8.90;;;;;;;;;;5055070;28;20469;-60
2021/03/10 03:48:06;;;;;;;12.30;8.00;;;;;;;;;;5054776;28;20472;-64
2021/03/10 03:50:33;;;;;;;10.20;7.60;;;;;;;;;;5054599;28;20217;-64
2021/03/10 03:52:58;;;;;;;13.57;8.37;;;;;;;;;;5039344;28;20621;-64
2021/03/10 03:55:23;;;;;;;11.30;7.97;;;;;;;;;;5035053;28;20539;-60
2021/03/10 03:57:49;;;;;;;12.93;8.30;;;;;;;;;;5035467;28;20399;-61
2021/03/10 04:00:17;;;;;;;12.73;8.30;;;;;;;;;;5034971;28;20256;-64
2021/03/10 04:02:44;;;;;;;12.17;8.70;;;;;;;;;;5033209;28;20622;-63
2021/03/10 04:05:11;;;;;;;12.47;8.00;;;;;;;;;;5035229;28;20522;-63
2021/03/10 04:07:56;;;;;;;11.50;7.60;;;;;;;;;;5034263;28;20463;-63
2021/03/10 04:10:25;;;;;;;11.10;7.90;;;;;;;;;;5034258;28;20465;-63
2021/03/10 04:12:50;;;;;;;9.30;8.23;;;;;;;;;;5034058;28;20474;-63
2021/03/10 04:15:16;;;;;;;12.77;7.60;;;;;;;;;;5036492;28;20472;-63
2021/03/10 04:17:41;;;;;;;13.50;8.57;;;;;;;;;;5037952;28;20697;-63
2021/03/10 04:20:15;;;;;;;11.27;8.60;;;;;;;;;;5050610;28;20547;-63
2021/03/10 04:22:41;;;;;;;9.77;7.37;;;;;;;;;;5057536;28;20217;-63
2021/03/10 04:25:07;;;;;;;12.03;9.50;;;;;;;;;;5057165;28;20935;-63
2021/03/10 04:27:33;;;;;;;11.67;8.90;;;;;;;;;;5057541;28;20533;-63
2021/03/10 04:29:59;;;;;;;12.33;8.87;;;;;;;;;;5057782;28;20510;-64
2021/03/10 04:32:24;;;;;;;9.83;6.80;;;;;;;;;;5057282;28;20491;-64
2021/03/10 04:34:49;;;;;;;12.23;8.23;;;;;;;;;;5057712;28;20304;-64
2021/03/10 04:37:14;;;;;;;8.63;7.73;;;;;;;;;;5057801;28;20247;-64
2021/03/10 04:39:40;;;;;;;12.20;8.70;;;;;;;;;;5057225;28;20221;-63
2021/03/10 04:42:06;;;;;;;8.77;7.33;;;;;;;;;;5057634;28;20221;-64
2021/03/10 04:44:31;;;;;;;12.87;8.10;;;;;;;;;;5056383;28;20677;-63
2021/03/10 04:46:56;;;;;;;12.20;8.30;;;;;;;;;;5057503;28;20942;-64
2021/03/10 04:49:21;;;;;;;9.73;8.73;;;;;;;;;;5057131;28;20309;-63
2021/03/10 04:51:47;;;;;;;11.77;7.93;;;;;;;;;;5057506;28;20221;-63
2021/03/10 04:54:12;;;;;;;8.90;7.30;;;;;;;;;;5045699;28;20623;-63
2021/03/10 04:56:37;;;;;;;16.13;9.40;;;;;;;;;;5037787;28;20217;-63
2021/03/10 04:59:03;;;;;;;12.93;8.33;;;;;;;;;;5037770;28;20612;-63
2021/03/10 05:01:28;;;;;;;13.43;8.20;;;;;;;;;;5037144;28;20412;-63
2021/03/10 05:03:53;;;;;;;11.97;8.33;;;;;;;;;;5037525;28;20222;-62
2021/03/10 05:06:18;;;;;;;16.37;8.30;;;;;;;;;;5037378;28;20300;-63
2021/03/10 05:08:44;;;;;;;12.87;8.60;;;;;;;;;;5037039;28;20283;-63
2021/03/10 05:11:09;;;;;;;11.27;9.00;;;;;;;;;;5037309;28;20301;-63
2021/03/10 05:13:34;;;;;;;11.17;8.67;;;;;;;;;;5037108;28;20546;-63
2021/03/10 05:15:59;;;;;;;13.90;9.27;;;;;;;;;;5037330;28;20229;-63
2021/03/10 05:18:25;;;;;;;12.43;7.80;;;;;;;;;;5036913;28;20299;-64
2021/03/10 05:20:50;;;;;;;10.37;9.03;;;;;;;;;;5045928;28;20220;-63
2021/03/10 05:23:15;;;;;;;14.70;9.83;;;;;;;;;;5057258;28;20292;-63
2021/03/10 05:25:40;;;;;;;10.93;8.60;;;;;;;;;;5053820;28;20219;-63
2021/03/10 05:28:06;;;;;;;12.20;8.77;;;;;;;;;;5037372;28;20305;-63
2021/03/10 05:30:31;;;;;;;11.37;9.10;;;;;;;;;;5037202;28;20648;-62
2021/03/10 05:32:56;;;;;;;15.33;8.90;;;;;;;;;;5036352;28;20319;-63
2021/03/10 05:35:21;;;;;;;11.97;8.73;;;;;;;;;;5037186;28;20230;-64
2021/03/10 05:37:47;;;;;;;13.87;9.40;;;;;;;;;;5036646;28;20214;-63
2021/03/10 05:40:14;;;;;;;13.80;9.40;;;;;;;;;;5037219;28;20237;-63
2021/03/10 05:42:41;;;;;;;17.43;11.03;;;;;;;;;;5036441;28;20221;-63
2021/03/10 05:45:07;;;;;;;15.00;9.20;;;;;;;;;;5036866;28;20900;-63
2021/03/10 05:47:33;;;;;;;17.23;9.93;;;;;;;;;;5036027;28;20479;-62
2021/03/10 05:49:58;;;;;;;15.43;9.33;;;;;;;;;;5019195;28;20460;-64
2021/03/10 05:52:23;;;;;;;16.77;10.60;;;;;;;;;;5036019;28;20237;-63
2021/03/10 05:54:51;;;;;;;16.03;9.93;;;;;;;;;;5036368;28;20224;-63
2021/03/10 05:57:18;;;;;;;13.90;9.47;;;;;;;;;;5036548;28;20209;-63
2021/03/10 05:59:43;;;;;;;20.53;12.63;;;;;;;;;;5036064;28;20940;-63
2021/03/10 06:02:08;;;;;;;16.97;11.30;;;;;;;;;;5036152;28;20522;-64
2021/03/10 06:04:41;;;;;;;19.70;12.00;;;;;;;;;;5035994;28;20225;-64
2021/03/10 06:07:18;;;;;;;15.80;10.87;;;;;;;;;;5036380;28;20245;-63
2021/03/10 06:09:54;;;;;;;18.90;11.80;;;;;;;;;;5035012;28;20812;-64
2021/03/10 06:12:19;;;;;;;17.20;10.93;;;;;;;;;;5036755;28;20467;-63
2021/03/10 06:14:44;;;;;;;18.77;13.40;;;;;;;;;;5035477;28;20895;-63
2021/03/10 06:17:10;;;;;;;17.40;11.47;;;;;;;;;;5036460;28;20206;-63
2021/03/10 06:19:45;;;;;;;14.13;10.17;;;;;;;;;;5036116;28;20218;-64
2021/03/10 06:22:12;;;;;;;15.83;10.90;;;;;;;;;;5055977;28;20334;-63
2021/03/10 06:24:37;;;;;;;15.20;10.40;;;;;;;;;;5056012;28;20450;-63
2021/03/10 06:27:02;;;;;;;19.13;12.63;;;;;;;;;;5042009;28;20475;-63
2021/03/10 06:29:28;;;;;;;13.73;10.70;;;;;;;;;;5035861;28;20216;-63
2021/03/10 06:32:09;;;;;;;16.97;10.90;;;;;;;;;;5034903;28;20222;-63
2021/03/10 06:34:42;;;;;;;15.47;11.67;;;;;;;;;;5035346;28;20251;-63
2021/03/10 06:37:09;;;;;;;15.50;12.47;;;;;;;;;;5035257;28;20940;-63
2021/03/10 06:39:34;;;;;;;20.70;13.10;;;;;;;;;;5035695;28;20466;-63
2021/03/10 06:42:00;;;;;;;13.50;11.60;;;;;;;;;;5034985;28;20483;-63
2021/03/10 06:44:28;;;;;;;18.80;12.33;;;;;;;;;;5035765;28;20214;-64
2021/03/10 06:47:02;;;;;;;21.20;11.87;;;;;;;;;;5034176;28;20232;-64
2021/03/10 06:49:29;;;;;;;19.57;12.30;;;;;;;;;;5035450;28;20453;-64
2021/03/10 06:51:54;;;;;;;20.80;12.87;;;;;;;;;;5034823;28;20459;-63
2021/03/10 06:54:21;;;;;;;18.17;11.33;;;;;;;;;;5035808;28;20464;-64
2021/03/10 06:56:58;;;;;;;18.90;12.80;;;;;;;;;;5035458;28;20448;-64
2021/03/10 06:59:23;;;;;;;17.73;11.03;;;;;;;;;;5035582;28;20479;-65
2021/03/10 07:01:48;;;;;;;17.77;11.77;;;;;;;;;;5034257;28;21025;-63
2021/03/10 07:04:13;;;;;;;17.77;12.57;;;;;;;;;;5034345;28;20223;-64
2021/03/10 07:06:40;;;;;;;14.30;12.30;;;;;;;;;;5034955;28;20225;-63
2021/03/10 07:09:13;;;;;;;20.90;12.60;;;;;;;;;;5034615;28;20296;-64
2021/03/10 07:11:41;;;;;;;21.70;12.13;;;;;;;;;;5034959;28;20457;-63
2021/03/10 07:14:10;;;;;;;18.30;12.83;;;;;;;;;;5035044;28;20507;-64
2021/03/10 07:16:36;;;;;;;20.43;13.03;;;;;;;;;;5035017;28;20455;-64
2021/03/10 07:19:04;;;;;;;22.47;12.47;;;;;;;;;;5035250;28;20467;-64
2021/03/10 07:21:33;;;;;;;17.80;12.50;;;;;;;;;;5049030;28;20226;-64
2021/03/10 07:24:00;;;;;;;19.70;13.00;;;;;;;;;;5053935;28;20452;-63
2021/03/10 07:26:26;;;;;;;23.93;12.30;;;;;;;;;;5046430;28;20457;-63
2021/03/10 07:28:55;;;;;;;25.37;12.63;;;;;;;;;;5034995;28;20520;-63
2021/03/10 07:31:22;;;;;;;19.10;12.60;;;;;;;;;;5035052;28;20866;-63
2021/03/10 07:33:52;;;;;;;16.80;12.37;;;;;;;;;;5034732;28;20460;-63
2021/03/10 07:36:17;;;;;;;19.10;12.80;;;;;;;;;;5034572;28;20788;-65
2021/03/10 07:38:42;;;;;;;19.50;12.97;;;;;;;;;;5034271;28;20471;-64
2021/03/10 07:41:09;;;;;;;22.53;13.37;;;;;;;;;;5034827;28;20232;-64
2021/03/10 07:43:46;;;;;;;22.07;13.67;;;;;;;;;;5034744;28;20352;-64
2021/03/10 07:46:21;;;;;;;18.47;14.13;;;;;;;;;;5034690;28;20766;-64
2021/03/10 07:48:47;;;;;;;19.53;11.50;;;;;;;;;;5033287;28;20460;-64
2021/03/10 07:51:48;;;;;;;17.10;12.50;;;;;;;;;;5034432;28;20457;-64
2021/03/10 07:54:23;;;;;;;19.40;11.80;;;;;;;;;;5032357;28;20278;-64
2021/03/10 07:56:48;;;;;;;18.47;12.97;;;;;;;;;;5034375;28;20459;-63
2021/03/10 07:59:15;;;;;;;19.73;12.07;;;;;;;;;;5033293;28;20467;-64
2021/03/10 08:01:40;;;;;;;21.00;11.80;;;;;;;;;;5034144;28;20231;-64
2021/03/10 08:04:07;;;;;;;19.97;11.73;;;;;;;;;;5033793;28;20834;-63
2021/03/10 08:06:49;;;;;;;16.67;11.70;;;;;;;;;;5033850;28;20255;-63
2021/03/10 08:09:17;;;;;;;19.23;11.67;;;;;;;;;;5034034;28;20801;-64
2021/03/10 08:11:45;;;;;;;17.60;11.70;;;;;;;;;;5034246;28;20556;-64
2021/03/10 08:14:13;;;;;;;16.00;11.17;;;;;;;;;;5033520;28;20479;-63
2021/03/10 08:16:49;;;;;;;18.43;11.93;;;;;;;;;;5033342;28;20462;-64
2021/03/10 08:19:21;;;;;;;16.90;11.30;;;;;;;;;;5033666;28;20529;-63
2021/03/10 08:21:52;;;;;;;20.33;11.10;;;;;;;;;;5050274;28;20498;-64
2021/03/10 08:24:18;;;;;;;16.13;11.30;;;;;;;;;;5053706;28;20559;-64
2021/03/10 08:26:48;;;;;;;19.47;11.00;;;;;;;;;;5042629;28;20904;-65
2021/03/10 08:29:13;;;;;;;18.43;11.70;;;;;;;;;;5033549;28;20221;-64
2021/03/10 08:31:47;;;;;;;14.40;11.93;;;;;;;;;;5033876;28;20952;-64
2021/03/10 08:34:13;;;;;;;17.83;12.60;;;;;;;;;;5033579;28;20316;-64
2021/03/10 08:36:38;;;;;;;15.13;10.90;;;;;;;;;;5032975;28;20507;-63
2021/03/10 08:39:11;;;;;;;17.30;10.60;;;;;;;;;;5034048;28;20237;-65
2021/03/10 08:41:48;;;;;;;12.67;10.43;;;;;;;;;;5033443;28;20654;-65
2021/03/10 08:44:13;;;;;;;17.47;10.83;;;;;;;;;;5033184;28;20468;-63
2021/03/10 08:46:42;;;;;;;12.57;9.47;;;;;;;;;;5033587;28;20526;-64
2021/03/10 08:49:25;;;;;;;13.27;9.70;;;;;;;;;;5033523;28;20221;-64
2021/03/10 08:52:03;;;;;;;13.87;9.50;;;;;;;;;;5025134;28;20500;-64
2021/03/10 08:54:29;;;;;;;13.13;10.20;;;;;;;;;;5033148;28;20472;-64
2021/03/10 08:56:54;;;;;;;13.67;10.37;;;;;;;;;;5033730;28;20591;-64
2021/03/10 08:59:19;;;;;;;14.10;10.47;;;;;;;;;;5032994;28;20613;-63
2021/03/10 09:01:47;;;;;;;14.40;10.13;;;;;;;;;;5037498;28;20308;-64
2021/03/10 09:04:20;;;;;;;18.77;10.60;;;;;;;;;;5047654;28;20221;-64
2021/03/10 09:06:45;;;;;;;14.30;10.13;;;;;;;;;;5047044;28;20469;-64
2021/03/10 09:09:11;;;;;;;17.53;10.07;;;;;;;;;;5035882;28;20468;-63
2021/03/10 09:11:36;;;;;;;12.70;9.57;;;;;;;;;;5050621;28;20293;-64
2021/03/10 09:14:01;;;;;;;11.20;9.27;;;;;;;;;;5055831;28;20272;-64
2021/03/10 09:16:27;;;;;;;12.80;10.27;;;;;;;;;;5038863;28;20236;-64
2021/03/10 09:22:43;;;;;;;14.23;9.20;;;;;;;;;;5002654;28;20307;-64
2021/03/10 09:25:11;;;;;;;14.03;8.90;;;;;;;;;;5036613;28;20472;-63
2021/03/10 09:27:36;;;;;;;13.93;8.90;;;;;;;;;;5053267;28;20439;-64
2021/03/10 09:30:07;;;;;;;11.47;7.40;;;;;;;;;;5055332;28;20531;-63
2021/03/10 09:32:46;;;;;;;13.03;8.40;;;;;;;;;;5050724;28;20236;-64
2021/03/10 09:35:23;;;;;;;13.63;7.90;;;;;;;;;;5055899;28;20520;-64
2021/03/10 09:37:59;;;;;;;14.53;8.17;;;;;;;;;;5054513;28;20507;-65
2021/03/10 09:40:42;;;;;;;11.47;7.57;;;;;;;;;;5056244;28;20457;-64
2021/03/10 09:43:15;;;;;;;9.90;7.17;;;;;;;;;;5035647;28;20800;-63
2021/03/10 09:45:42;;;;;;;13.23;8.03;;;;;;;;;;5031485;28;20802;-64
2021/03/10 09:48:11;;;;;;;8.90;8.00;;;;;;;;;;5035971;28;20472;-64
2021/03/10 09:50:39;;;;;;;11.80;7.10;;;;;;;;;;5031753;28;20524;-64
2021/03/10 09:53:32;;;;;;;10.63;7.97;;;;;;;;;;5021494;28;20813;-64
2021/03/10 09:56:10;;;;;;;8.73;6.93;;;;;;;;;;5018928;28;20752;-64
2021/03/10 09:58:57;;;;;;;10.73;7.53;;;;;;;;;;5024718;28;20520;-64
2021/03/10 10:01:28;;;;;;;11.43;8.27;;;;;;;;;;5035751;28;20468;-65
2021/03/10 10:03:55;;;;;;;13.53;8.10;;;;;;;;;;5038340;28;20472;-64
2021/03/10 10:06:21;;;;;;;11.37;7.40;;;;;;;;;;5035264;28;20471;-64
2021/03/10 10:08:48;;;;;;;6.90;6.17;;;;;;;;;;5035724;28;20455;-64
2021/03/10 10:11:13;;;;;;;7.37;5.47;;;;;;;;;;5026688;28;21058;-64
2021/03/10 10:13:40;;;;;;;9.80;5.67;;;;;;;;;;5015037;28;20647;-64
2021/03/10 10:16:06;;;;;;;7.30;5.53;;;;;;;;;;5019322;28;20314;-64
2021/03/10 10:18:31;;;;;;;8.23;6.13;;;;;;;;;;5034566;28;20475;-64
2021/03/10 10:20:56;;;;;;;6.03;5.43;;;;;;;;;;5034307;28;20295;-64
2021/03/10 10:23:22;;;;;;;6.30;4.60;;;;;;;;;;5035100;28;20241;-63
2021/03/10 10:25:47;;;;;;;5.80;4.70;;;;;;;;;;5031719;28;20696;-64
2021/03/10 10:28:12;;;;;;;6.30;5.17;;;;;;;;;;5021300;28;20318;-63
2021/03/10 10:30:37;;;;;;;8.43;4.70;;;;;;;;;;5035156;28;20228;-65
2021/03/10 10:33:04;;;;;;;5.23;4.60;;;;;;;;;;5034683;28;20238;-64
2021/03/10 10:35:29;;;;;;;9.80;4.73;;;;;;;;;;5035257;28;20292;-65
2021/03/10 10:37:55;;;;;;;6.20;4.47;;;;;;;;;;5035223;28;20444;-64
2021/03/10 10:40:21;;;;;;;4.93;4.53;;;;;;;;;;5023470;28;20657;-64
2021/03/10 10:42:48;;;;;;;5.70;4.97;;;;;;;;;;5022864;28;20229;-64
2021/03/10 10:45:14;;;;;;;8.77;8.03;;;;;;;;;;5034643;28;20453;-65
2021/03/10 10:47:40;;;;;;;8.43;6.97;;;;;;;;;;5026596;28;20805;-63
2021/03/10 10:50:06;;;;;;;7.20;6.50;;;;;;;;;;5014780;28;20455;-63
2021/03/10 10:52:35;;;;;;;8.20;5.60;;;;;;;;;;5015148;28;20222;-63
2021/03/10 10:55:01;;;;;;;8.00;6.43;;;;;;;;;;5018109;28;20446;-64
2021/03/10 10:57:26;;;;;;;8.07;6.23;;;;;;;;;;5029674;28;20447;-64
2021/03/10 10:59:52;;;;;;;7.73;5.60;;;;;;;;;;5023353;28;20245;-64
2021/03/10 11:02:17;;;;;;;7.90;5.90;;;;;;;;;;5015821;28;20310;-63
2021/03/10 11:04:43;;;;;;;7.17;6.00;;;;;;;;;;5016421;28;20219;-63
2021/03/10 11:07:08;;;;;;;7.30;5.53;;;;;;;;;;5015067;28;20219;-64
2021/03/10 11:09:36;;;;;;;6.00;5.13;;;;;;;;;;5026630;28;20224;-63
2021/03/10 11:12:01;;;;;;;7.07;4.97;;;;;;;;;;5034402;28;20278;-64
2021/03/10 11:14:26;;;;;;;7.93;5.50;;;;;;;;;;5030475;28;20542;-64
2021/03/10 11:16:56;;;;;;;6.13;5.10;;;;;;;;;;5032922;28;20676;-64
2021/03/10 11:19:21;;;;;;;7.73;5.07;;;;;;;;;;5033933;28;20683;-64
2021/03/10 11:21:46;;;;;;;7.87;5.73;;;;;;;;;;5020603;28;20465;-63
2021/03/10 11:24:11;;;;;;;5.67;4.80;;;;;;;;;;5016963;28;20225;-63
2021/03/10 11:26:37;;;;;;;6.67;5.30;;;;;;;;;;5028506;28;20228;-64
2021/03/10 11:29:02;;;;;;;7.40;5.00;;;;;;;;;;5034315;28;20224;-64
2021/03/10 11:31:27;;;;;;;7.80;5.50;;;;;;;;;;5033932;28;20632;-63
2021/03/10 11:33:53;;;;;;;7.63;5.13;;;;;;;;;;5034581;28;20219;-64
2021/03/10 11:36:18;;;;;;;8.50;4.67;;;;;;;;;;5033777;28;20224;-63
2021/03/10 11:38:43;;;;;;;6.47;4.90;;;;;;;;;;5034214;28;20306;-64
2021/03/10 11:41:09;;;;;;;6.27;5.60;;;;;;;;;;5034047;28;20221;-64
2021/03/10 11:43:34;;;;;;;5.47;4.70;;;;;;;;;;5054178;28;20213;-64
2021/03/10 11:45:59;;;;;;;5.57;4.57;;;;;;;;;;5054052;28;20366;-64
2021/03/10 11:48:25;;;;;;;5.27;4.80;;;;;;;;;;5053550;28;20228;-64
2021/03/10 11:50:50;;;;;;;7.90;4.90;;;;;;;;;;5053862;28;20244;-64
2021/03/10 11:53:15;;;;;;;5.67;4.60;;;;;;;;;;5053592;28;20347;-64
2021/03/10 11:55:41;;;;;;;6.13;4.37;;;;;;;;;;5054041;28;20303;-63
2021/03/10 11:58:06;;;;;;;7.37;4.80;;;;;;;;;;5053595;28;20205;-63
2021/03/10 12:00:32;;;;;;;5.30;4.43;;;;;;;;;;5053601;28;20216;-64
2021/03/10 12:02:57;;;;;;;4.93;4.50;;;;;;;;;;5041972;28;20244;-64
2021/03/10 12:05:22;;;;;;;5.40;4.33;;;;;;;;;;5033520;28;20638;-64
2021/03/10 12:07:49;;;;;;;8.87;3.97;;;;;;;;;;5048145;28;20228;-64
2021/03/10 12:10:16;;;;;;;4.60;3.90;;;;;;;;;;5053318;28;20227;-64
2021/03/10 12:12:41;;;;;;;4.90;4.33;;;;;;;;;;5053714;28;20470;-64
2021/03/10 12:15:08;;;;;;;5.73;4.90;;;;;;;;;;5053118;28;20438;-62
2021/03/10 12:17:34;;;;;;;9.63;5.20;;;;;;;;;;5053789;28;20545;-64
2021/03/10 12:19:59;;;;;;;8.33;4.73;;;;;;;;;;5053729;28;20473;-64
2021/03/10 12:22:24;;;;;;;5.33;4.20;;;;;;;;;;5053006;28;20213;-63
2021/03/10 12:24:50;;;;;;;6.93;4.23;;;;;;;;;;5048733;28;20271;-64
2021/03/10 12:27:25;;;;;;;5.87;4.97;;;;;;;;;;5037254;28;20225;-64
2021/03/10 12:29:57;;;;;;;5.70;4.40;;;;;;;;;;5033781;28;20213;-64
2021/03/10 12:32:22;;;;;;;5.50;4.50;;;;;;;;;;5043422;28;20490;-62
2021/03/10 12:34:54;;;;;;;8.20;4.90;;;;;;;;;;5053574;28;20460;-64
2021/03/10 12:37:20;;;;;;;9.73;4.70;;;;;;;;;;5057050;28;20230;-64
2021/03/10 12:39:45;;;;;;;5.80;5.20;;;;;;;;;;5051773;28;20790;-63
2021/03/10 12:42:11;;;;;;;8.00;5.27;;;;;;;;;;5056879;28;20604;-64
2021/03/10 12:44:40;;;;;;;6.70;5.73;;;;;;;;;;5057162;28;20213;-64
2021/03/10 12:47:05;;;;;;;6.53;5.30;;;;;;;;;;5057127;28;20222;-64
2021/03/10 12:49:31;;;;;;;5.60;4.20;;;;;;;;;;5056881;28;20433;-64
2021/03/10 12:51:57;;;;;;;9.63;5.13;;;;;;;;;;5057217;28;20303;-64
2021/03/10 12:54:22;;;;;;;5.07;4.13;;;;;;;;;;5056642;28;20939;-64
2021/03/10 12:56:48;;;;;;;6.80;5.07;;;;;;;;;;5056999;28;20213;-64
2021/03/10 12:59:14;;;;;;;8.67;4.30;;;;;;;;;;5056217;28;20351;-64
2021/03/10 13:01:39;;;;;;;6.93;4.90;;;;;;;;;;5055597;28;20437;-64
2021/03/10 13:04:05;;;;;;;5.70;4.43;;;;;;;;;;5056848;28;20478;-63
2021/03/10 13:06:30;;;;;;;6.20;4.97;;;;;;;;;;5056428;28;20214;-63
2021/03/10 13:08:55;;;;;;;5.07;4.37;;;;;;;;;;5056937;28;20720;-64
2021/03/10 13:11:21;;;;;;;9.90;4.23;;;;;;;;;;5055431;28;20243;-63
2021/03/10 13:13:46;;;;;;;5.00;3.97;;;;;;;;;;5055982;28;20294;-64
2021/03/10 13:16:11;;;;;;;5.53;3.90;;;;;;;;;;5046985;28;20215;-63
2021/03/10 13:18:36;;;;;;;8.13;4.80;;;;;;;;;;5056074;28;20586;-64
2021/03/10 13:21:02;;;;;;;4.90;4.23;;;;;;;;;;5052624;28;20224;-64
2021/03/10 13:23:27;;;;;;;6.20;4.33;;;;;;;;;;5056089;28;20213;-63
2021/03/10 13:25:52;;;;;;;6.93;4.83;;;;;;;;;;5052196;28;20542;-65
2021/03/10 13:28:18;;;;;;;5.43;4.90;;;;;;;;;;5035890;28;20239;-63
2021/03/10 13:30:43;;;;;;;6.33;5.23;;;;;;;;;;5035363;28;20268;-64
2021/03/10 13:33:08;;;;;;;5.93;4.97;;;;;;;;;;5036407;28;20324;-64
2021/03/10 13:35:36;;;;;;;8.17;5.80;;;;;;;;;;5035990;28;20324;-63
2021/03/10 13:38:02;;;;;;;8.40;5.50;;;;;;;;;;5036404;28;20217;-64
2021/03/10 13:40:27;;;;;;;5.73;5.13;;;;;;;;;;5034706;28;20530;-64
2021/03/10 13:42:52;;;;;;;6.00;4.97;;;;;;;;;;5036168;28;20209;-64
2021/03/10 13:45:18;;;;;;;6.80;6.10;;;;;;;;;;5035816;28;20221;-64
2021/03/10 13:47:43;;;;;;;8.90;5.90;;;;;;;;;;5035012;28;20231;-64
2021/03/10 13:50:11;;;;;;;8.70;6.40;;;;;;;;;;5036502;28;20351;-64
2021/03/10 13:52:36;;;;;;;8.83;6.03;;;;;;;;;;5035659;28;20221;-64
2021/03/10 13:55:02;;;;;;;7.87;7.07;;;;;;;;;;5035118;28;20467;-64
2021/03/10 13:57:27;;;;;;;8.53;6.97;;;;;;;;;;5035799;28;20212;-64
2021/03/10 13:59:52;;;;;;;8.67;6.90;;;;;;;;;;5036171;28;20224;-63
2021/03/10 14:02:18;;;;;;;9.80;7.20;;;;;;;;;;5035539;28;20314;-63
2021/03/10 14:04:43;;;;;;;7.83;6.60;;;;;;;;;;5035949;28;20546;-64
2021/03/10 14:07:08;;;;;;;8.47;7.47;;;;;;;;;;5035945;28;20684;-65
2021/03/10 14:09:50;;;;;;;8.33;7.57;;;;;;;;;;5027412;28;20630;-64
2021/03/10 14:12:16;;;;;;;8.27;7.00;;;;;;;;;;5020924;28;20235;-65
2021/03/10 14:14:41;;;;;;;9.03;6.73;;;;;;;;;;5035132;28;20507;-65
2021/03/10 14:17:06;;;;;;;9.70;8.00;;;;;;;;;;5055254;28;20263;-64
2021/03/10 14:19:32;;;;;;;9.63;7.00;;;;;;;;;;5055409;28;20224;-64
2021/03/10 14:21:59;;;;;;;8.23;7.07;;;;;;;;;;5055412;28;20622;-64
2021/03/10 14:24:27;;;;;;;8.10;7.03;;;;;;;;;;5054691;28;20450;-63
2021/03/10 14:26:52;;;;;;;7.87;6.93;;;;;;;;;;5042940;28;20497;-64
2021/03/10 14:29:17;;;;;;;9.73;8.40;;;;;;;;;;5052583;28;20509;-61
2021/03/10 14:31:43;;;;;;;7.83;6.53;;;;;;;;;;5054990;28;20227;-61
2021/03/10 14:34:08;;;;;;;10.13;7.33;;;;;;;;;;5055414;28;20220;-61
2021/03/10 14:36:33;;;;;;;8.23;7.40;;;;;;;;;;5055171;28;20295;-61
2021/03/10 14:38:59;;;;;;;8.30;7.30;;;;;;;;;;5055609;28;20250;-60